createdAt,value
2019-05-18T04:30:52.324Z,5.20
2019-05-18T04:33:21.378Z,6.90
2019-05-18T04:35:50.622Z,6.60
2019-05-18T04:38:19.627Z,6.13
2019-05-18T04:40:48.691Z,6.00
2019-05-18T04:43:17.807Z,6.37
2019-05-18T04:45:46.740Z,8.20
2019-05-18T04:48:15.744Z,7.63
2019-05-18T04:50:44.764Z,7.80
2019-05-18T04:53:13.792Z,9.27
2019-05-18T04:55:42.715Z,7.17
2019-05-18T04:58:11.778Z,8.40
2019-05-18T05:00:40.941Z,9.30
2019-05-18T05:03:09.962Z,8.60
2019-05-18T05:05:38.868Z,9.27
2019-05-18T05:08:07.935Z,7.83
2019-05-18T05:10:37.006Z,7.60
2019-05-18T05:13:05.921Z,9.90
2019-05-18T05:15:34.974Z,10.13
2019-05-18T05:18:04.053Z,10.80
2019-05-18T05:20:33.107Z,9.80
2019-05-18T05:23:02.127Z,10.20
2019-05-18T05:25:31.031Z,8.63
2019-05-18T05:28:00.051Z,6.40
2019-05-18T05:30:29.106Z,5.97
2019-05-18T05:32:58.029Z,6.40
2019-05-18T05:35:27.119Z,5.80
2019-05-18T05:37:56.226Z,7.80
2019-05-18T05:40:25.159Z,7.90
2019-05-18T05:42:54.353Z,6.40
2019-05-18T05:45:23.428Z,7.93
2019-05-18T05:47:52.499Z,9.43
2019-05-18T05:50:34.781Z,7.73
2019-05-18T05:52:52.347Z,7.43
2019-05-18T05:55:21.463Z,7.80
2019-05-18T05:57:50.587Z,9.63
2019-05-18T06:00:19.674Z,8.03
2019-05-18T06:02:49.367Z,10.33
2019-05-18T06:05:18.784Z,9.67
2019-05-18T06:07:47.783Z,10.10
2019-05-18T06:10:17.137Z,10.17
2019-05-18T06:12:46.099Z,9.07
2019-05-18T06:15:15.414Z,11.50
2019-05-18T06:17:44.370Z,9.73
2019-05-18T06:20:13.659Z,9.03
2019-05-18T06:22:42.790Z,13.10
2019-05-18T06:25:12.309Z,11.03
2019-05-18T06:27:41.412Z,7.93
2019-05-18T06:30:11.091Z,8.93
2019-05-18T06:32:40.352Z,8.17
2019-05-18T06:35:09.543Z,8.00
2019-05-18T06:37:39.401Z,7.70
2019-05-18T06:40:10.779Z,10.43
2019-05-18T06:42:39.899Z,9.27
2019-05-18T06:45:09.444Z,13.53
2019-05-18T06:47:38.554Z,10.53
2019-05-18T06:50:11.755Z,7.70
2019-05-18T06:52:39.314Z,11.93
2019-05-18T06:55:08.564Z,10.17
2019-05-18T06:57:38.162Z,7.70
2019-05-18T07:00:08.935Z,12.57
2019-05-18T07:02:37.946Z,10.77
2019-05-18T07:05:07.146Z,9.23
2019-05-18T07:07:36.226Z,9.13
2019-05-18T07:10:05.787Z,8.63
2019-05-18T07:12:34.716Z,9.77
2019-05-18T07:15:04.043Z,7.77
2019-05-18T07:17:34.675Z,9.27
2019-05-18T07:20:04.304Z,6.10
2019-05-18T07:22:33.470Z,6.80
2019-05-18T07:25:02.462Z,7.23
2019-05-18T07:27:31.530Z,8.53
2019-05-18T07:30:00.438Z,9.67
2019-05-18T07:32:29.561Z,5.80
2019-05-18T07:34:58.531Z,6.03
2019-05-18T07:37:27.644Z,6.03
2019-05-18T07:39:56.663Z,6.13
2019-05-18T07:42:25.647Z,10.50
2019-05-18T07:44:54.659Z,6.53
2019-05-18T07:47:23.645Z,7.97
2019-05-18T07:49:52.789Z,6.80
2019-05-18T07:52:21.870Z,8.47
2019-05-18T07:54:50.878Z,5.93
2019-05-18T07:57:19.895Z,4.80
2019-05-18T07:59:48.878Z,5.20
2019-05-18T08:02:17.891Z,4.93
2019-05-18T08:04:46.904Z,8.43
2019-05-18T08:07:16.086Z,5.07
2019-05-18T08:09:44.995Z,4.87
2019-05-18T08:12:14.006Z,5.87
2019-05-18T08:14:43.149Z,5.03
2019-05-18T08:17:12.184Z,5.00
2019-05-18T08:19:41.123Z,6.03
2019-05-18T08:22:10.191Z,5.07
2019-05-18T08:24:39.286Z,5.77
2019-05-18T08:27:08.204Z,9.37
2019-05-18T08:29:37.143Z,5.80
2019-05-18T08:32:06.263Z,4.63
2019-05-18T08:34:35.191Z,5.43
2019-05-18T08:37:04.193Z,5.03
2019-05-18T08:39:33.239Z,7.40
2019-05-18T08:42:02.242Z,5.30
2019-05-18T08:44:31.218Z,5.37
2019-05-18T08:47:00.263Z,6.67
2019-05-18T08:49:29.271Z,6.13
2019-05-18T08:52:07.848Z,5.27
2019-05-18T08:54:28.885Z,6.80
2019-05-18T08:56:57.923Z,6.03
2019-05-18T08:59:27.292Z,7.00
2019-05-18T09:01:56.289Z,5.60
2019-05-18T09:04:25.296Z,6.57
2019-05-18T09:06:54.305Z,7.57
2019-05-18T09:09:23.239Z,8.37
2019-05-18T09:11:52.419Z,6.43
2019-05-18T09:14:21.500Z,8.60
2019-05-18T09:16:50.533Z,7.93
2019-05-18T09:19:19.712Z,6.77
2019-05-18T09:21:48.706Z,6.80
2019-05-18T09:24:17.783Z,6.90
2019-05-18T09:26:46.888Z,10.20
2019-05-18T09:29:15.900Z,6.67
2019-05-18T09:31:45.019Z,7.13
2019-05-18T09:34:14.050Z,8.63
2019-05-18T09:36:43.135Z,6.13
2019-05-18T09:39:12.203Z,7.87
2019-05-18T09:41:41.199Z,7.00
2019-05-18T09:44:10.235Z,10.77
2019-05-18T09:46:39.350Z,6.97
2019-05-18T09:49:08.559Z,7.77
2019-05-18T09:51:37.494Z,8.00
2019-05-18T09:54:06.571Z,7.60
2019-05-18T09:56:35.651Z,9.10
2019-05-18T09:59:04.825Z,9.53
2019-05-18T10:01:33.821Z,9.00
2019-05-18T10:04:02.832Z,10.13
2019-05-18T10:06:31.909Z,10.90
2019-05-18T10:09:01.003Z,13.63
2019-05-18T10:11:37.524Z,8.13
2019-05-18T10:14:00.929Z,8.10
2019-05-18T10:16:29.861Z,9.40
2019-05-18T10:18:58.890Z,8.23
2019-05-18T10:21:28.038Z,8.33
2019-05-18T10:23:56.982Z,9.07
2019-05-18T10:26:26.018Z,10.67
2019-05-18T10:28:55.018Z,9.10
2019-05-18T10:31:24.166Z,10.57
2019-05-18T10:33:53.188Z,7.93
2019-05-18T10:36:22.611Z,10.47
2019-05-18T10:38:51.744Z,9.40
2019-05-18T10:41:20.905Z,7.43
2019-05-18T10:43:50.134Z,9.70
2019-05-18T10:46:19.068Z,8.67
2019-05-18T10:48:48.144Z,7.80
2019-05-18T10:51:17.188Z,8.10
2019-05-18T10:53:46.263Z,7.80
2019-05-18T10:56:15.330Z,8.43
2019-05-18T10:58:44.347Z,9.90
2019-05-18T11:01:13.471Z,8.87
2019-05-18T11:03:42.561Z,8.40
2019-05-18T11:06:11.611Z,8.27
2019-05-18T11:08:40.750Z,7.10
2019-05-18T11:11:09.819Z,6.07
2019-05-18T11:13:38.905Z,6.30
2019-05-18T11:16:08.071Z,7.73
2019-05-18T11:18:37.134Z,8.00
2019-05-18T11:21:06.227Z,13.67
2019-05-18T11:23:43.362Z,8.93
2019-05-18T11:26:06.286Z,8.57
2019-05-18T11:28:35.442Z,8.33
2019-05-18T11:31:04.520Z,8.17
2019-05-18T11:33:33.598Z,8.60
2019-05-18T11:36:02.659Z,7.97
2019-05-18T11:38:31.800Z,7.90
2019-05-18T11:41:00.867Z,7.90
2019-05-18T11:43:29.879Z,9.00
2019-05-18T11:45:58.971Z,7.53
2019-05-18T11:48:27.944Z,7.27
2019-05-18T11:50:57.043Z,6.17
2019-05-18T11:53:26.206Z,5.10
2019-05-18T11:55:55.352Z,6.70
2019-05-18T11:58:24.368Z,5.47
2019-05-18T12:00:53.377Z,6.37
2019-05-18T12:03:22.475Z,6.40
2019-05-18T12:05:51.558Z,4.20
2019-05-18T12:08:20.656Z,4.67
2019-05-18T12:10:49.743Z,6.03
2019-05-18T12:13:18.775Z,5.20
2019-05-18T12:15:47.855Z,3.70
2019-05-18T12:18:16.927Z,4.40
2019-05-18T12:20:45.995Z,3.23
2019-05-18T12:23:14.940Z,2.80
2019-05-18T12:25:43.926Z,3.03
2019-05-18T12:28:13.001Z,2.70
2019-05-18T12:30:42.129Z,3.13
2019-05-18T12:33:11.291Z,2.63
2019-05-18T12:35:40.325Z,3.00
2019-05-18T12:38:09.323Z,2.27
2019-05-18T12:40:38.357Z,4.10
2019-05-18T12:43:07.497Z,2.13
2019-05-18T12:45:36.499Z,1.90
2019-05-18T12:48:05.639Z,3.20
2019-05-18T12:50:34.828Z,5.30
2019-05-18T12:53:03.920Z,2.10
2019-05-18T12:55:33.012Z,1.90
2019-05-18T12:58:01.932Z,1.60
2019-05-18T13:00:31.207Z,1.90
2019-05-18T13:03:00.267Z,2.03
2019-05-18T13:05:29.291Z,1.20
2019-05-18T13:08:01.136Z,2.60
2019-05-18T13:10:30.226Z,2.10
2019-05-18T13:12:59.176Z,3.60
2019-05-18T13:34:31.118Z,1.40
2019-05-18T13:37:00.102Z,2.70
2019-05-18T13:39:29.192Z,1.30
2019-05-18T13:41:58.269Z,1.00
2019-05-18T13:44:27.267Z,4.00
2019-05-18T13:46:56.279Z,1.20
2019-05-18T13:49:25.347Z,2.30
2019-05-18T13:51:54.431Z,1.30
2019-05-18T13:54:23.510Z,1.97
2019-05-18T13:56:52.638Z,2.20
2019-05-18T13:59:21.802Z,1.17
2019-05-18T14:01:50.971Z,0.90
2019-05-18T14:04:20.310Z,1.50
2019-05-18T14:06:49.400Z,1.03
2019-05-18T14:09:18.559Z,0.90
2019-05-18T14:11:47.566Z,1.73
2019-05-18T14:14:16.642Z,0.73
2019-05-18T14:16:45.722Z,0.70
2019-05-18T14:19:14.875Z,1.23
2019-05-18T14:21:43.924Z,1.50
2019-05-18T14:24:12.989Z,3.43
2019-05-18T14:26:41.895Z,1.00
2019-05-18T14:29:10.975Z,0.90
2019-05-18T14:31:39.995Z,0.93
2019-05-18T14:34:09.154Z,4.40
2019-05-18T14:36:38.137Z,1.53
2019-05-18T14:39:07.283Z,2.20
2019-05-18T14:41:36.299Z,1.73
2019-05-18T14:44:05.397Z,1.47
2019-05-18T14:46:34.475Z,2.17
2019-05-18T14:49:03.508Z,5.30
2019-05-18T14:51:32.515Z,1.87
2019-05-18T14:54:01.723Z,1.07
2019-05-18T14:56:31.678Z,1.93
2019-05-18T14:59:01.311Z,2.67
2019-05-18T15:01:31.159Z,1.30
2019-05-18T15:04:00.289Z,3.20
2019-05-18T15:06:29.435Z,3.70
2019-05-18T15:08:58.441Z,2.50
2019-05-18T15:11:27.468Z,1.83
2019-05-18T15:13:56.426Z,2.23
2019-05-18T15:16:25.604Z,1.50
2019-05-18T15:18:54.646Z,2.13
2019-05-18T15:21:24.639Z,1.43
2019-05-18T15:23:54.239Z,0.80
2019-05-18T15:26:23.427Z,1.00
2019-05-18T15:28:52.409Z,1.00
2019-05-18T15:31:23.775Z,1.17
2019-05-18T15:33:52.185Z,0.93
2019-05-18T15:36:21.260Z,0.97
2019-05-18T15:38:50.260Z,1.10
2019-05-18T15:41:19.341Z,3.50
2019-05-18T15:43:48.344Z,3.27
2019-05-18T15:46:17.383Z,1.10
2019-05-18T15:48:46.466Z,1.23
2019-05-18T15:51:15.601Z,1.20
2019-05-18T15:53:44.631Z,1.33
2019-05-18T15:56:13.775Z,2.10
2019-05-18T15:58:42.770Z,5.60
2019-05-18T16:01:11.901Z,1.13
2019-05-18T16:03:40.966Z,1.20
2019-05-18T16:06:10.100Z,1.80
2019-05-18T16:08:39.119Z,2.13
2019-05-18T16:11:08.214Z,2.60
2019-05-18T16:13:37.134Z,1.83
2019-05-18T16:16:06.207Z,2.13
2019-05-18T16:18:35.183Z,2.23
2019-05-18T16:21:04.242Z,1.40
2019-05-18T16:23:33.431Z,1.50
2019-05-18T16:26:02.433Z,4.70
2019-05-18T16:28:31.544Z,1.50
2019-05-18T16:31:00.558Z,2.07
2019-05-18T16:33:29.478Z,2.20
2019-05-18T16:35:58.446Z,2.30
2019-05-18T16:38:27.371Z,1.17
2019-05-18T16:40:56.453Z,2.30
2019-05-18T16:43:25.623Z,9.50
2019-05-18T16:45:54.663Z,2.40
2019-05-18T16:48:24.332Z,3.90
2019-05-18T16:50:53.415Z,1.50
2019-05-18T16:53:22.556Z,2.13
2019-05-18T16:55:51.565Z,1.50
2019-05-18T16:58:20.694Z,3.60
2019-05-18T17:00:50.015Z,5.47
2019-05-18T17:03:19.015Z,1.77
2019-05-18T17:05:48.075Z,1.17
2019-05-18T17:08:17.219Z,1.27
2019-05-18T17:10:46.304Z,2.17
2019-05-18T17:13:15.309Z,3.10
2019-05-18T17:15:44.958Z,3.40
2019-05-18T17:18:14.048Z,1.17
2019-05-18T17:20:43.444Z,1.83
2019-05-18T17:23:12.518Z,1.73
2019-05-18T17:25:41.586Z,4.53
2019-05-18T17:28:10.610Z,1.73
2019-05-18T17:30:42.568Z,2.30
2019-05-18T17:33:10.476Z,2.50
2019-05-18T17:35:39.775Z,1.00
2019-05-18T17:38:08.943Z,1.40
2019-05-18T17:40:38.285Z,7.80
2019-05-18T17:43:07.530Z,1.20
2019-05-18T17:45:36.643Z,1.20
2019-05-18T17:48:05.832Z,2.23
2019-05-18T17:50:35.145Z,1.80
2019-05-18T17:53:04.446Z,1.27
2019-05-18T17:55:33.729Z,1.47
2019-05-18T17:58:02.917Z,2.60
2019-05-18T18:00:32.131Z,1.43
2019-05-18T18:03:01.186Z,1.40
2019-05-18T18:05:30.295Z,3.57
2019-05-18T18:07:59.518Z,1.60
2019-05-18T18:10:28.696Z,1.13
2019-05-18T18:12:57.685Z,1.30
2019-05-18T18:15:26.783Z,1.97
2019-05-18T18:17:55.795Z,1.50
2019-05-18T18:20:25.055Z,1.70
2019-05-18T18:22:54.156Z,1.50
2019-05-18T18:25:23.417Z,2.83
2019-05-18T18:27:52.510Z,3.03
2019-05-18T18:30:21.807Z,3.23
2019-05-18T18:32:50.998Z,2.77
2019-05-18T18:35:20.193Z,1.37
2019-05-18T18:37:49.660Z,1.63
2019-05-18T18:40:18.752Z,3.73
2019-05-18T18:42:47.847Z,4.20
2019-05-18T18:45:17.370Z,2.10
2019-05-18T18:47:46.498Z,1.90
2019-05-18T18:50:16.190Z,2.07
2019-05-18T18:52:45.580Z,1.70
2019-05-18T18:55:15.070Z,1.97
2019-05-18T18:57:44.466Z,3.17
2019-05-18T19:00:14.142Z,1.57
2019-05-18T19:02:43.275Z,1.87
2019-05-18T19:05:14.172Z,3.27
2019-05-18T19:07:43.388Z,1.67
2019-05-18T19:10:14.099Z,2.13
2019-05-18T19:12:43.101Z,1.83
2019-05-18T19:15:12.659Z,4.07
2019-05-18T19:17:41.751Z,3.13
2019-05-18T19:20:11.410Z,1.37
2019-05-18T19:22:40.462Z,1.73
2019-05-18T19:25:09.941Z,3.03
2019-05-18T19:27:39.550Z,2.10
2019-05-18T19:30:10.247Z,2.00
2019-05-18T19:32:39.492Z,3.47
2019-05-18T19:35:08.935Z,2.07
2019-05-18T19:37:38.130Z,2.57
2019-05-18T19:40:07.691Z,1.60
2019-05-18T19:42:36.839Z,3.50
2019-05-18T21:01:07.928Z,4.87
2019-05-18T21:03:36.871Z,4.73
2019-05-18T21:06:06.015Z,3.17
2019-05-18T21:08:35.114Z,3.27
2019-05-18T21:11:04.299Z,3.90
2019-05-18T21:13:33.239Z,2.70
2019-05-18T21:16:02.413Z,3.10
2019-05-18T21:18:31.488Z,5.10
2019-05-18T21:21:00.460Z,3.30
2019-05-18T21:23:29.374Z,3.40
2019-05-18T21:25:58.375Z,3.47
2019-05-18T21:28:27.506Z,5.63
2019-05-18T21:30:56.507Z,3.30
2019-05-18T21:33:25.593Z,3.17
2019-05-18T21:35:54.763Z,3.00
2019-05-18T21:38:23.748Z,9.33
2019-05-18T21:40:52.836Z,3.23
2019-05-18T21:43:21.916Z,2.73
2019-05-18T21:45:51.020Z,2.50
2019-05-18T21:48:20.091Z,3.47
2019-05-18T21:50:52.712Z,2.50
2019-05-18T21:53:21.778Z,2.83
2019-05-18T21:55:50.850Z,4.23
2019-05-18T21:58:19.952Z,4.13
2019-05-18T22:00:49.666Z,2.97
2019-05-18T22:03:18.938Z,4.70
2019-05-18T22:05:48.029Z,2.60
2019-05-18T22:08:17.187Z,3.10
2019-05-18T22:10:46.222Z,3.13
2019-05-18T22:13:15.145Z,7.00
2019-05-18T22:15:44.151Z,3.90
2019-05-18T22:18:24.088Z,3.10
2019-05-18T22:20:44.547Z,3.80
2019-05-18T22:23:13.708Z,5.20
2019-05-18T22:25:42.802Z,3.33
2019-05-18T22:28:11.867Z,3.87
